createdAt,value
2019-05-21T00:03:52.758Z,17.83
2019-05-21T00:08:54.847Z,17.07
2019-05-21T00:13:56.944Z,18.80
2019-05-21T00:18:59.035Z,18.10
2019-05-21T00:24:01.204Z,18.57
2019-05-21T00:29:40.064Z,20.73
2019-05-21T00:35:19.311Z,20.93
2019-05-21T00:40:58.360Z,17.73
2019-05-21T00:46:00.453Z,19.73
2019-05-21T00:51:02.537Z,18.53
2019-05-21T00:56:04.625Z,20.37
2019-05-21T01:01:06.712Z,21.10
2019-05-21T01:06:08.755Z,18.23
2019-05-21T01:11:10.828Z,20.80
2019-05-21T01:16:12.927Z,20.97
2019-05-21T01:21:15.009Z,18.03
2019-05-21T01:26:17.113Z,19.93
2019-05-21T01:31:19.289Z,20.33
2019-05-21T01:36:21.443Z,20.67
2019-05-21T01:41:23.542Z,18.93
2019-05-21T01:46:28.001Z,17.60
2019-05-21T01:51:30.063Z,18.40
2019-05-21T01:56:32.186Z,20.17
2019-05-21T02:01:34.256Z,17.10
2019-05-21T02:06:36.371Z,17.30
2019-05-21T02:11:38.516Z,18.77
2019-05-21T02:16:40.590Z,17.00
2019-05-21T02:21:42.676Z,19.17
2019-05-21T02:26:44.758Z,19.80
2019-05-21T02:31:46.829Z,19.20
2019-05-21T02:36:48.982Z,18.00
2019-05-21T02:41:51.039Z,19.43
2019-05-21T02:46:53.121Z,20.47
2019-05-21T02:51:55.239Z,19.10
2019-05-21T02:56:57.430Z,17.73
2019-05-21T03:02:05.769Z,18.60
2019-05-21T03:07:19.669Z,20.37
2019-05-21T03:12:21.784Z,21.03
2019-05-21T03:17:23.884Z,19.73
2019-05-21T03:22:25.959Z,21.17
2019-05-21T03:27:28.079Z,21.53
2019-05-21T03:32:30.934Z,22.00
2019-05-21T03:37:33.040Z,22.43
2019-05-21T03:42:35.131Z,23.00
2019-05-21T03:47:39.314Z,20.90
2019-05-21T03:52:41.421Z,22.20
2019-05-21T03:57:43.472Z,22.60
2019-05-21T04:02:45.585Z,22.00
2019-05-21T04:07:47.697Z,21.63
2019-05-21T04:13:05.922Z,27.93
2019-05-21T04:18:15.341Z,24.33
2019-05-21T04:23:17.434Z,22.70
2019-05-21T04:28:19.497Z,24.73
2019-05-21T04:33:21.570Z,19.50
2019-05-21T04:38:23.867Z,24.80
2019-05-21T04:43:26.106Z,17.03
2019-05-21T04:48:28.338Z,15.63
2019-05-21T04:53:30.381Z,15.73
2019-05-21T04:58:32.517Z,16.57
2019-05-21T05:03:34.704Z,15.20
2019-05-21T05:08:36.761Z,18.07
2019-05-21T05:13:38.833Z,15.00
2019-05-21T05:18:41.038Z,13.20
2019-05-21T05:23:43.138Z,12.43
2019-05-21T05:28:45.326Z,11.37
2019-05-21T05:33:47.437Z,12.43
2019-05-21T05:38:51.917Z,12.68
2019-05-21T05:43:53.978Z,12.00
2019-05-21T05:49:02.162Z,11.70
2019-05-21T05:54:07.534Z,11.43
2019-05-21T05:59:09.782Z,12.00
2019-05-21T06:04:11.938Z,12.63
2019-05-21T06:09:14.058Z,12.35
2019-05-21T06:14:16.112Z,10.82
2019-05-21T06:19:18.521Z,10.32
2019-05-21T06:24:20.710Z,10.18
2019-05-21T06:29:22.767Z,9.38
2019-05-21T06:34:27.003Z,9.23
2019-05-21T06:39:29.043Z,9.83
2019-05-21T06:44:31.113Z,8.73
2019-05-21T06:49:34.168Z,8.65
2019-05-21T06:54:36.237Z,7.78
2019-05-21T06:59:38.363Z,8.63
2019-05-21T07:04:40.471Z,8.83
2019-05-21T07:09:42.622Z,8.28
2019-05-21T07:14:44.699Z,8.48
2019-05-21T07:19:46.897Z,7.83
2019-05-21T07:24:49.006Z,8.45
2019-05-21T07:29:51.088Z,8.03
2019-05-21T07:34:53.215Z,8.00
2019-05-21T07:39:55.314Z,8.73
2019-05-21T07:44:57.529Z,9.30
2019-05-21T07:49:59.705Z,9.40
2019-05-21T07:55:01.819Z,8.60
2019-05-21T08:00:05.481Z,9.35
2019-05-21T08:05:07.776Z,8.05
2019-05-21T08:10:10.270Z,7.90
2019-05-21T08:15:12.773Z,7.92
2019-05-21T08:20:16.890Z,8.75
2019-05-21T08:25:21.045Z,7.35
2019-05-21T08:30:23.103Z,8.80
2019-05-21T08:35:27.416Z,8.83
2019-05-21T08:40:29.746Z,9.58
2019-05-21T08:45:31.932Z,7.85
2019-05-21T08:50:34.231Z,9.53
2019-05-21T08:55:36.384Z,8.73
2019-05-21T09:00:38.619Z,6.70
2019-05-21T09:05:40.712Z,5.78
2019-05-21T09:10:42.768Z,5.70
2019-05-21T09:15:45.163Z,7.42
2019-05-21T09:20:47.296Z,4.70
2019-05-21T09:25:49.789Z,5.78
2019-05-21T09:30:52.308Z,6.85
2019-05-21T09:35:54.451Z,4.33
2019-05-21T09:40:56.605Z,5.90
2019-05-21T09:45:58.671Z,4.10
2019-05-21T09:51:00.970Z,5.92
2019-05-21T09:56:23.202Z,4.47
2019-05-21T10:01:31.855Z,5.33
2019-05-21T10:06:33.938Z,3.60
2019-05-21T10:11:36.037Z,4.42
2019-05-21T10:16:38.121Z,3.95
2019-05-21T10:21:40.236Z,3.52
2019-05-21T10:26:42.490Z,3.83
2019-05-21T10:31:44.694Z,4.20
2019-05-21T10:36:46.821Z,4.55
2019-05-21T10:41:49.009Z,3.75
2019-05-21T10:46:51.300Z,3.42
2019-05-21T10:51:53.446Z,3.72
2019-05-21T10:56:55.596Z,3.67
2019-05-21T11:02:17.505Z,3.25
2019-05-21T11:07:21.983Z,3.50
2019-05-21T11:12:24.557Z,3.42
2019-05-21T11:17:26.730Z,3.50
2019-05-21T11:22:29.052Z,3.52
2019-05-21T11:27:31.444Z,3.00
2019-05-21T11:32:33.733Z,2.40
2019-05-21T11:37:35.988Z,3.00
2019-05-21T11:42:38.127Z,2.50
2019-05-21T11:47:40.795Z,2.25
2019-05-21T11:52:42.896Z,2.52
2019-05-21T11:57:45.145Z,2.62
2019-05-21T12:02:47.210Z,1.90
2019-05-21T12:07:49.310Z,1.35
2019-05-21T12:12:51.478Z,1.55
2019-05-21T12:17:53.671Z,2.20
2019-05-21T12:22:55.858Z,1.40
2019-05-21T12:27:58.513Z,1.30
2019-05-21T12:33:00.581Z,1.80
2019-05-21T12:38:03.120Z,1.47
2019-05-21T12:43:06.809Z,1.00
2019-05-21T12:48:11.021Z,1.32
2019-05-21T12:53:16.423Z,0.90
2019-05-21T12:58:20.170Z,5.33
2019-05-21T13:03:22.323Z,2.00
2019-05-21T13:08:24.795Z,4.95
2019-05-21T13:13:26.898Z,4.87
2019-05-21T13:18:28.952Z,3.85
2019-05-21T13:23:33.366Z,6.60
2019-05-21T13:28:35.549Z,3.77
2019-05-21T13:33:37.669Z,3.30
2019-05-21T13:38:39.741Z,3.05
2019-05-21T13:43:44.132Z,4.10
2019-05-21T13:48:47.020Z,4.70
2019-05-21T13:53:49.451Z,5.75
2019-05-21T13:58:51.573Z,4.03
2019-05-21T14:03:53.789Z,5.00
2019-05-21T14:08:55.919Z,4.00
2019-05-21T14:13:58.015Z,7.45
2019-05-21T14:19:00.179Z,3.47
2019-05-21T14:24:05.277Z,3.42
2019-05-21T14:29:07.422Z,4.72
2019-05-21T14:34:09.562Z,4.33
2019-05-21T14:39:14.608Z,4.72
2019-05-21T14:44:16.802Z,4.03
2019-05-21T14:49:22.736Z,7.33
2019-05-21T14:54:26.987Z,5.45
2019-05-21T14:59:29.044Z,5.30
2019-05-21T15:04:31.377Z,5.20
2019-05-21T15:09:34.073Z,5.95
2019-05-21T15:14:38.732Z,4.90
2019-05-21T15:19:44.484Z,5.20
2019-05-21T15:24:46.589Z,4.50
2019-05-21T15:29:48.732Z,5.70
2019-05-21T15:34:50.912Z,8.00
2019-05-21T15:39:55.292Z,6.08
2019-05-21T15:44:57.447Z,5.40
2019-05-21T15:49:59.642Z,5.83
2019-05-21T15:55:06.270Z,5.45
2019-05-21T16:00:05.803Z,4.90
2019-05-21T16:05:08.433Z,3.67
2019-05-21T16:10:34.921Z,5.00
2019-05-21T16:15:38.164Z,4.90
2019-05-21T16:20:42.457Z,3.42
2019-05-21T16:25:44.451Z,7.72
2019-05-21T16:30:46.674Z,9.18
2019-05-21T16:35:48.731Z,9.87
2019-05-21T16:40:50.901Z,10.23
2019-05-21T16:45:53.181Z,8.70
2019-05-21T16:50:55.230Z,9.78
2019-05-21T16:55:57.291Z,9.73
2019-05-21T17:01:00.035Z,8.35
2019-05-21T17:06:02.124Z,8.33
2019-05-21T17:11:04.231Z,10.20
2019-05-21T17:16:06.441Z,14.87
2019-05-21T17:21:10.209Z,12.53
2019-05-21T17:26:12.400Z,11.83
2019-05-21T17:31:14.503Z,9.25
2019-05-21T17:36:16.652Z,11.43
2019-05-21T17:41:18.787Z,8.90
2019-05-21T17:46:20.856Z,9.13
2019-05-21T17:51:26.053Z,9.33
2019-05-21T17:56:28.257Z,8.63
2019-05-21T18:01:49.613Z,6.97
2019-05-21T18:06:56.010Z,10.23
2019-05-21T18:11:58.072Z,8.67
2019-05-21T18:17:01.754Z,8.27
2019-05-21T18:22:09.485Z,8.20
2019-05-21T18:27:23.667Z,9.63
2019-05-21T18:32:30.044Z,10.87
2019-05-21T18:37:32.744Z,8.43
2019-05-21T18:42:35.322Z,11.23
2019-05-21T18:47:37.430Z,12.57
2019-05-21T18:52:39.569Z,14.33
2019-05-21T18:57:41.681Z,12.97
2019-05-21T19:02:49.814Z,17.53
2019-05-21T19:07:51.955Z,14.63
2019-05-21T19:12:56.610Z,13.03
2019-05-21T19:17:58.733Z,13.93
2019-05-21T19:23:20.230Z,16.33
2019-05-21T19:28:42.863Z,16.57
2019-05-21T19:33:55.583Z,16.70
2019-05-21T19:38:59.648Z,14.57
2019-05-21T19:44:01.959Z,15.23
2019-05-21T19:49:18.878Z,14.53
2019-05-21T19:54:21.012Z,13.77
2019-05-21T19:59:24.208Z,14.03
2019-05-21T20:04:26.922Z,14.90
2019-05-21T20:09:31.137Z,23.07
2019-05-21T20:14:33.195Z,18.80
2019-05-21T20:19:35.861Z,14.90
2019-05-21T20:24:39.096Z,17.37
2019-05-21T20:29:41.964Z,18.60
2019-05-21T20:34:44.113Z,16.67
2019-05-21T20:39:47.969Z,13.17
2019-05-21T20:44:55.613Z,12.80
2019-05-21T20:49:57.868Z,13.33
2019-05-21T20:55:03.178Z,13.10
2019-05-21T21:00:07.610Z,11.60
2019-05-21T21:05:11.952Z,9.47
2019-05-21T21:10:14.013Z,10.20
2019-05-21T21:15:16.692Z,11.80
2019-05-21T21:20:18.831Z,10.53
2019-05-21T21:25:22.175Z,13.13
2019-05-21T21:30:24.604Z,10.30
2019-05-21T21:35:30.353Z,12.70
2019-05-21T21:40:32.529Z,10.37
2019-05-21T21:45:34.727Z,12.33
2019-05-21T21:50:37.852Z,12.47
2019-05-21T21:55:40.192Z,14.63
2019-05-21T22:01:28.682Z,16.03
2019-05-21T22:06:33.566Z,17.73
2019-05-21T22:11:36.673Z,18.90
2019-05-21T22:16:38.792Z,19.80
2019-05-21T22:21:41.152Z,23.00
2019-05-21T22:26:43.195Z,23.57
2019-05-21T22:31:46.916Z,25.00
2019-05-21T22:36:49.107Z,29.13
2019-05-21T22:41:51.520Z,25.87
2019-05-21T22:46:54.102Z,22.77
2019-05-21T22:51:56.348Z,18.37
2019-05-21T22:56:58.431Z,18.93
2019-05-21T23:02:02.440Z,18.33
2019-05-21T23:07:05.202Z,17.10
2019-05-21T23:12:07.996Z,17.57
2019-05-21T23:17:10.582Z,15.37
2019-05-21T23:22:15.782Z,15.07
2019-05-21T23:27:18.866Z,15.97
2019-05-21T23:32:21.613Z,20.17
2019-05-21T23:37:24.800Z,18.30
2019-05-21T23:42:29.768Z,16.17
2019-05-21T23:47:31.047Z,17.40
2019-05-21T23:52:37.135Z,18.93
2019-05-21T23:57:39.737Z,19.00
